Date,TemperatureHighF,TemperatureAvgF,TemperatureLowF,DewpointHighF,DewpointAvgF,DewpointLowF,HumidityHigh,HumidityAvg,HumidityLow,PressureMaxIn,PressureMinIn,WindSpeedMaxMPH,WindSpeedAvgMPH,GustSpeedMaxMPH,PrecipitationSumIn
2013-6-1,94.7,83.6,75.6,71.8,67.2,55.8,83,59,43,29.93,29.63,23,2,0,0.00
2013-6-2,91.7,81.2,68.6,59.6,56.3,50.8,65,44,29,30.06,29.84,15,2,17,0.00
2013-6-3,97.6,82.3,68.5,68.4,61.6,55.0,68,51,32,29.95,29.73,21,2,11,0.00
2013-6-4,105.0,89.0,74.3,67.7,63.5,58.7,71,46,26,29.79,29.63,19,4,19,0.00
2013-6-5,104.4,85.1,68.8,65.7,60.6,52.4,80,48,19,29.79,29.61,26,2,26,0.48
2013-6-6,92.3,72.6,65.5,66.1,61.4,57.7,85,69,40,29.93,29.72,18,1,18,0.00
2013-6-7,84.9,73.1,65.8,65.0,60.5,51.1,94,68,36,30.03,29.86,18,2,18,0.25
2013-6-8,91.1,77.4,62.1,66.5,60.6,55.4,82,58,41,29.93,29.71,17,2,17,0.00
2013-6-9,93.3,80.4,65.2,68.5,64.6,59.3,95,62,36,29.95,29.75,16,2,16,0.22
2013-6-10,99.7,83.3,68.8,70.7,62.0,43.6,89,56,16,29.97,29.84,17,2,17,0.00
2013-6-11,98.9,85.4,72.9,69.5,63.6,59.0,80,51,28,29.95,29.84,16,3,16,0.00
2013-6-12,95.3,83.3,71.9,68.1,64.9,61.5,83,56,35,29.99,29.85,21,4,21,0.00
2013-6-13,97.8,83.0,74.2,70.2,67.1,60.8,83,61,31,30.00,29.83,23,2,23,0.03
2013-6-14,86.9,76.8,67.4,69.3,66.9,63.7,91,72,52,29.98,29.88,17,2,17,0.08
2013-6-15,86.5,76.7,67.7,71.9,68.0,64.5,92,75,56,29.99,29.86,20,2,20,0.15
2013-6-16,98.5,83.6,70.0,72.8,68.9,66.1,90,64,37,30.00,29.82,16,2,16,0.00
2013-6-17,99.5,85.5,69.5,71.7,68.7,60.6,89,61,33,29.99,29.75,20,3,20,0.15
2013-6-18,91.5,77.9,65.4,68.5,64.7,61.8,95,68,42,30.01,29.87,15,1,15,0.38
2013-6-19,98.8,84.4,70.5,70.9,65.6,60.2,88,57,30,29.91,29.82,18,2,18,0.00
2013-6-20,95.7,85.2,75.5,68.0,65.6,62.8,76,54,35,29.95,29.82,23,4,23,0.00
2013-6-21,96.0,81.8,75.4,69.5,66.9,60.1,81,63,34,29.97,29.85,21,2,21,0.00
2013-6-22,97.8,85.7,74.5,68.6,62.3,56.0,78,48,26,29.93,29.78,23,3,23,0.00
2013-6-23,97.1,85.9,75.0,66.9,62.5,56.8,64,47,28,29.87,29.76,23,4,23,0.00
2013-6-24,95.9,84.3,73.2,68.7,65.1,61.0,77,55,34,29.93,29.78,21,4,21,0.00
2013-6-25,102.3,88.1,77.0,69.7,66.9,62.0,76,52,30,29.89,29.73,20,4,20,0.00
2013-6-26,105.5,90.1,76.5,71.2,66.6,61.5,75,49,25,29.85,29.75,18,3,18,0.00
2013-6-27,107.1,91.1,77.2,69.3,60.3,48.3,74,41,16,29.93,29.82,16,2,16,0.00
2013-6-28,106.0,89.6,71.2,67.4,58.3,51.9,64,38,20,29.97,29.78,16,0,16,0.00
2013-6-29,106.5,92.1,75.9,67.7,60.4,53.9,69,38,19,29.87,29.71,14,0,14,0.00
2013-6-30,93.2,83.1,69.9,67.8,63.9,57.8,91,55,34,29.93,29.77,23,1,23,0.11